Pagrindinis puslapis
METAR-TAF:

METAR-TAF

Oro uostai :

Afonsos

Rio de Žaneiras, Rio de Janeiro, Brazilija

platuma: 22-52S, ilguma: 043-22W, Aukštis: 34 m

Dabartinis oras

Ataskaita buvo paskelbta 13 valandos ir 25 minutes, ne 22:00 UTC
Vėjas 4 kt iš Vakarų/Šiaurės Vakarų
Temperatūra 18°C
Drėgmė 88%
Slėgis 1017 hPa
Matomumas 10 km arba daugiau
nėra debesų žemiau 1500 m ir nėra kamuolinių lietaus debesų

METAR: SBAF 302200Z 29004KT CAVOK 18/16 Q1017

Laikas: 08:25 (11:25 UTC)

Prognozė

Ataskaita buvo paskelbta 8 valandos ir 25 minutes, ne 03:00 UTC
Prognozė galioja nuo 31 metu 06 UTC su 31 metu 18 UTC
Vėjas 7 kt iš Šiaurės/Šiaurės Rytų
Matomumas 10 km arba daugiau
Išsisklaidę debesys ne aukštis 1000 ft
Tikimybė 40%
nuo 31 metu 08 UTC su 31 metu 11 UTC
Matomumas: 4000 m
Su prošvaistėmis ne aukštis 700 ft
rūkana

TAF: SBAF 310300Z 3106/3118 03007KT 9999 SCT010 TN17/3108Z TX26/3117Z PROB40 3108/3111 4000 BR BKN007 RMK PEI

Orai ataskaitas ir orų prognozės (METAR, TAF).

turimą stotys yra geltonos ir raudonos taškus žemėlapyje.

Perkelti pele per norėdami pamatyti stoties vardą.

Tada spustelėkite, norėdami matyti oro stebėjimo ir prognozės.

Norėdami pakeisti žemėlapį: spustelėkite ant žalios mygtukų su juodo kryžiaus žemyn,; žalią mygtuką su brūkšneliu, jei norite nutolinti; arba žalių rodyklių gretimoms žemėlapius.


METAR-TAF: